Time;durP1;ratioP1;P1;durP2;ratioP2;P2;SDS_P1;SDS_P2;PMS_P1;PMS_P2;Temp;Humidity;BMP_temperature;BMP_pressure;BME280_temperature;BME280_humidity;BME280_pressure;Samples;Min_cycle;Max_cycle;Signal;HPM_P1;HPM_P2
2022/06/26 00:00:45;;;;;;;2.97;2.50;;;;;;;;;;4565565;28;20033;-71
2022/06/26 00:02:56;;;;;;;2.65;2.45;;;;;;;;;;4565695;27;20115;-71
2022/06/26 00:05:07;;;;;;;2.58;2.35;;;;;;;;;;4554869;28;20115;-70
2022/06/26 00:07:17;;;;;;;3.17;2.58;;;;;;;;;;4563913;28;20043;-71
2022/06/26 00:09:28;;;;;;;2.72;2.40;;;;;;;;;;4563808;28;20039;-71
2022/06/26 00:11:38;;;;;;;2.90;2.28;;;;;;;;;;4563104;28;20439;-70
2022/06/26 00:13:49;;;;;;;2.83;2.47;;;;;;;;;;4563429;28;20036;-71
2022/06/26 00:15:59;;;;;;;2.60;2.40;;;;;;;;;;4562144;28;20114;-70
2022/06/26 00:18:11;;;;;;;2.47;2.28;;;;;;;;;;4570472;28;20117;-71
2022/06/26 00:20:21;;;;;;;2.70;2.50;;;;;;;;;;4563724;28;20040;-70
2022/06/26 00:22:33;;;;;;;3.00;2.78;;;;;;;;;;4548573;28;20024;-71
2022/06/26 00:24:43;;;;;;;3.28;2.83;;;;;;;;;;4563917;28;20121;-70
2022/06/26 00:26:54;;;;;;;2.92;2.60;;;;;;;;;;4565867;28;20051;-70
2022/06/26 00:29:04;;;;;;;3.50;2.80;;;;;;;;;;4563304;27;20032;-71
2022/06/26 00:31:15;;;;;;;3.22;2.92;;;;;;;;;;4563613;28;20549;-70
2022/06/26 00:33:25;;;;;;;3.17;2.88;;;;;;;;;;4566272;28;20067;-70
2022/06/26 00:35:35;;;;;;;3.22;2.90;;;;;;;;;;4564299;27;20032;-70
2022/06/26 00:37:46;;;;;;;3.42;3.10;;;;;;;;;;4562466;28;20040;-70
2022/06/26 00:39:56;;;;;;;3.25;2.95;;;;;;;;;;4563925;28;20024;-70
2022/06/26 00:42:07;;;;;;;3.70;3.15;;;;;;;;;;4565513;28;20036;-70
2022/06/26 00:44:20;;;;;;;3.30;3.00;;;;;;;;;;4562837;28;20067;-70
2022/06/26 00:46:31;;;;;;;3.03;2.70;;;;;;;;;;4565047;28;20028;-70
2022/06/26 00:48:41;;;;;;;3.10;2.80;;;;;;;;;;4570449;28;20036;-70
2022/06/26 00:50:53;;;;;;;3.30;2.90;;;;;;;;;;4550142;28;20059;-70
2022/06/26 00:53:04;;;;;;;3.22;2.83;;;;;;;;;;4565110;28;20028;-70
2022/06/26 00:55:15;;;;;;;2.97;2.65;;;;;;;;;;4563098;28;20019;-69
2022/06/26 00:57:26;;;;;;;3.30;2.92;;;;;;;;;;4563287;28;20082;-70
2022/06/26 00:59:36;;;;;;;3.10;2.80;;;;;;;;;;4564022;27;20028;-70
2022/06/26 01:01:46;;;;;;;3.15;2.85;;;;;;;;;;4564504;27;20950;-70
2022/06/26 01:03:57;;;;;;;2.90;2.70;;;;;;;;;;4549670;28;20476;-70
2022/06/26 01:06:08;;;;;;;3.10;2.80;;;;;;;;;;4563099;28;20060;-70
2022/06/26 01:08:18;;;;;;;2.60;2.40;;;;;;;;;;4565728;27;20040;-70
2022/06/26 01:10:29;;;;;;;2.90;2.55;;;;;;;;;;4564679;27;20548;-70
2022/06/26 01:12:40;;;;;;;2.70;2.50;;;;;;;;;;4562478;28;20152;-70
2022/06/26 01:14:54;;;;;;;3.20;2.60;;;;;;;;;;4554021;28;21293;-69
2022/06/26 01:17:04;;;;;;;2.80;2.60;;;;;;;;;;4563418;28;20111;-70
2022/06/26 01:19:17;;;;;;;3.33;2.80;;;;;;;;;;4573527;28;20078;-70
2022/06/26 01:21:28;;;;;;;2.97;2.58;;;;;;;;;;4563487;28;20032;-70
2022/06/26 01:23:39;;;;;;;2.85;2.40;;;;;;;;;;4564696;28;20025;-70
2022/06/26 01:25:49;;;;;;;3.25;2.50;;;;;;;;;;4573580;28;20045;-70
2022/06/26 01:28:00;;;;;;;2.97;2.47;;;;;;;;;;4565827;28;20048;-70
2022/06/26 01:30:11;;;;;;;2.40;2.20;;;;;;;;;;4565309;28;20048;-70
2022/06/26 01:32:21;;;;;;;2.67;2.47;;;;;;;;;;4565433;28;20028;-70
2022/06/26 01:34:33;;;;;;;2.53;2.33;;;;;;;;;;4562381;28;20033;-70
2022/06/26 01:36:46;;;;;;;2.70;2.50;;;;;;;;;;4561573;28;20058;-70
2022/06/26 01:38:57;;;;;;;2.95;2.58;;;;;;;;;;4548607;28;20508;-70
2022/06/26 01:41:08;;;;;;;2.83;2.25;;;;;;;;;;4574842;28;20170;-70
2022/06/26 01:43:25;;;;;;;2.60;2.40;;;;;;;;;;4532448;28;20349;-70
2022/06/26 01:45:47;;;;;;;3.33;2.50;;;;;;;;;;4565029;28;21200;-70
2022/06/26 01:47:58;;;;;;;3.05;2.65;;;;;;;;;;4556717;28;20040;-70
2022/06/26 01:50:10;;;;;;;2.53;2.33;;;;;;;;;;4546451;28;20041;-70
2022/06/26 01:52:22;;;;;;;2.55;2.30;;;;;;;;;;4582503;27;20038;-70
2022/06/26 01:54:33;;;;;;;2.75;2.30;;;;;;;;;;4567258;28;20037;-70
2022/06/26 01:56:44;;;;;;;2.58;2.38;;;;;;;;;;4573630;28;20028;-70
2022/06/26 01:58:55;;;;;;;2.50;2.30;;;;;;;;;;4563756;28;20508;-70
2022/06/26 02:01:22;;;;;;;2.47;2.28;;;;;;;;;;4567148;27;20084;-70
2022/06/26 02:03:35;;;;;;;2.50;2.30;;;;;;;;;;4567447;27;20887;-70
2022/06/26 02:05:45;;;;;;;3.03;2.50;;;;;;;;;;4548650;28;20068;-70
2022/06/26 02:07:58;;;;;;;2.42;2.22;;;;;;;;;;4567373;28;20036;-70
2022/06/26 02:15:08;;;;;;;2.50;2.30;;;;;;;;;;4565705;28;20141;-70
2022/06/26 02:17:19;;;;;;;3.05;2.25;;;;;;;;;;4565470;28;20114;-70
2022/06/26 02:19:29;;;;;;;3.03;2.45;;;;;;;;;;4567212;28;20032;-70
2022/06/26 02:21:40;;;;;;;2.90;2.60;;;;;;;;;;4565513;28;20553;-70
2022/06/26 02:23:52;;;;;;;3.00;2.50;;;;;;;;;;4568815;28;21220;-69
2022/06/26 02:26:04;;;;;;;2.63;2.42;;;;;;;;;;4567621;28;21056;-70
2022/06/26 02:28:16;;;;;;;3.00;2.42;;;;;;;;;;4568291;28;20069;-70
2022/06/26 02:30:26;;;;;;;2.72;2.40;;;;;;;;;;4579802;27;20043;-70
2022/06/26 02:32:37;;;;;;;3.47;2.60;;;;;;;;;;4567059;28;20044;-70
2022/06/26 02:34:47;;;;;;;2.85;2.45;;;;;;;;;;4567947;28;20064;-70
2022/06/26 02:36:58;;;;;;;2.60;2.40;;;;;;;;;;4566042;27;20032;-70
2022/06/26 02:39:08;;;;;;;2.85;2.38;;;;;;;;;;4565746;27;20036;-71
2022/06/26 02:41:18;;;;;;;2.50;2.30;;;;;;;;;;4567573;28;20036;-70
2022/06/26 02:43:31;;;;;;;2.97;2.30;;;;;;;;;;4556645;28;20044;-70
2022/06/26 02:45:42;;;;;;;2.55;2.33;;;;;;;;;;4566837;27;21178;-69
2022/06/26 02:47:52;;;;;;;2.65;2.30;;;;;;;;;;4566912;28;20102;-70
2022/06/26 02:50:03;;;;;;;2.70;2.50;;;;;;;;;;4580178;27;20039;-70
2022/06/26 02:52:14;;;;;;;2.78;2.58;;;;;;;;;;4555864;28;20186;-70
2022/06/26 02:54:25;;;;;;;2.85;2.30;;;;;;;;;;4565280;28;20116;-70
2022/06/26 02:56:35;;;;;;;2.50;2.30;;;;;;;;;;4562673;28;20032;-70
2022/06/26 02:58:46;;;;;;;2.40;2.20;;;;;;;;;;4566932;28;20039;-70
2022/06/26 03:00:59;;;;;;;2.50;2.30;;;;;;;;;;4563654;28;20036;-70
2022/06/26 03:03:10;;;;;;;2.40;2.20;;;;;;;;;;4556632;28;20048;-70
2022/06/26 03:05:21;;;;;;;2.55;2.35;;;;;;;;;;4564594;28;20035;-70
2022/06/26 03:07:31;;;;;;;2.60;2.40;;;;;;;;;;4564445;28;20869;-70
2022/06/26 03:09:44;;;;;;;2.60;2.40;;;;;;;;;;4573730;28;20055;-70
2022/06/26 03:11:55;;;;;;;2.60;2.40;;;;;;;;;;4568115;28;20042;-70
2022/06/26 03:14:10;;;;;;;2.60;2.40;;;;;;;;;;4562647;28;20525;-70
2022/06/26 03:16:20;;;;;;;3.13;2.15;;;;;;;;;;4564672;28;20064;-70
2022/06/26 03:18:30;;;;;;;4.25;2.42;;;;;;;;;;4566337;28;20036;-70
2022/06/26 03:20:41;;;;;;;2.90;2.60;;;;;;;;;;4573531;28;20064;-70
2022/06/26 03:22:54;;;;;;;2.72;2.53;;;;;;;;;;4564156;28;20032;-70
2022/06/26 03:25:07;;;;;;;3.13;2.30;;;;;;;;;;4567486;27;20032;-70
2022/06/26 03:27:18;;;;;;;3.65;2.33;;;;;;;;;;4550925;28;20033;-70
2022/06/26 03:29:28;;;;;;;2.80;2.42;;;;;;;;;;4563908;28;20590;-69
2022/06/26 03:31:39;;;;;;;2.60;2.40;;;;;;;;;;4548925;28;20033;-71
2022/06/26 03:33:52;;;;;;;2.85;2.50;;;;;;;;;;4550268;28;20801;-70
2022/06/26 03:36:04;;;;;;;3.22;2.50;;;;;;;;;;4572351;28;20037;-70
2022/06/26 03:38:15;;;;;;;2.53;2.30;;;;;;;;;;4566921;28;20032;-70
2022/06/26 03:40:29;;;;;;;2.75;2.30;;;;;;;;;;4572593;28;20142;-70
2022/06/26 03:42:40;;;;;;;2.58;2.15;;;;;;;;;;4562810;28;20032;-69
2022/06/26 03:44:51;;;;;;;2.85;2.28;;;;;;;;;;4564527;28;20457;-69
2022/06/26 03:47:02;;;;;;;2.78;2.40;;;;;;;;;;4561184;28;20032;-70
2022/06/26 03:49:14;;;;;;;2.45;2.25;;;;;;;;;;4572068;28;20572;-71
2022/06/26 03:51:25;;;;;;;2.45;2.25;;;;;;;;;;4566568;28;20043;-70
2022/06/26 03:53:35;;;;;;;2.92;2.45;;;;;;;;;;4565105;28;20468;-70
2022/06/26 03:55:46;;;;;;;2.90;2.30;;;;;;;;;;4566497;28;20036;-70
2022/06/26 03:57:57;;;;;;;2.50;2.25;;;;;;;;;;4572982;28;20023;-70
2022/06/26 04:00:08;;;;;;;2.65;2.45;;;;;;;;;;4571359;28;20102;-70
2022/06/26 04:02:28;;;;;;;2.90;2.50;;;;;;;;;;4561239;28;20160;-70
2022/06/26 04:04:38;;;;;;;2.75;2.35;;;;;;;;;;4564761;28;20054;-71
2022/06/26 04:06:49;;;;;;;2.58;2.25;;;;;;;;;;4567232;28;20128;-71
2022/06/26 04:09:14;;;;;;;2.53;2.30;;;;;;;;;;4571905;28;20020;-70
2022/06/26 04:11:24;;;;;;;2.75;2.28;;;;;;;;;;4566469;28;20047;-70
2022/06/26 04:13:44;;;;;;;2.40;2.20;;;;;;;;;;4567678;28;20040;-71
2022/06/26 04:15:58;;;;;;;3.35;2.45;;;;;;;;;;4566497;28;20109;-70
2022/06/26 04:18:09;;;;;;;2.60;2.40;;;;;;;;;;4564930;27;20035;-70
2022/06/26 04:20:20;;;;;;;2.60;2.38;;;;;;;;;;4564910;28;20043;-70
2022/06/26 04:22:35;;;;;;;3.00;2.70;;;;;;;;;;4555495;28;20029;-70
2022/06/26 04:24:46;;;;;;;2.85;2.30;;;;;;;;;;4565247;28;20258;-70
2022/06/26 04:26:56;;;;;;;2.95;2.50;;;;;;;;;;4547895;28;20127;-71
2022/06/26 04:29:09;;;;;;;2.83;2.50;;;;;;;;;;4545461;28;20589;-70
2022/06/26 04:31:22;;;;;;;2.80;2.60;;;;;;;;;;4579408;27;20047;-70
2022/06/26 04:33:36;;;;;;;3.30;2.80;;;;;;;;;;4563435;28;20579;-71
2022/06/26 04:35:51;;;;;;;3.65;2.92;;;;;;;;;;4548956;28;20132;-70
2022/06/26 04:38:02;;;;;;;3.53;3.22;;;;;;;;;;4563428;28;20047;-70
2022/06/26 04:40:13;;;;;;;3.72;2.90;;;;;;;;;;4560714;28;20032;-71
2022/06/26 04:42:24;;;;;;;3.05;2.75;;;;;;;;;;4565721;28;20082;-71
2022/06/26 04:44:35;;;;;;;3.67;2.80;;;;;;;;;;4563791;28;20086;-70
2022/06/26 04:46:48;;;;;;;2.60;2.40;;;;;;;;;;4553450;28;20602;-70
2022/06/26 04:48:59;;;;;;;3.30;2.80;;;;;;;;;;4571617;28;20284;-70
2022/06/26 04:51:10;;;;;;;3.20;2.80;;;;;;;;;;4562948;28;20567;-70
2022/06/26 04:53:20;;;;;;;3.67;2.92;;;;;;;;;;4548426;28;20043;-71
2022/06/26 04:55:32;;;;;;;2.85;2.60;;;;;;;;;;4562976;28;20125;-70
2022/06/26 04:57:43;;;;;;;3.33;3.03;;;;;;;;;;4554191;28;20102;-70
2022/06/26 04:59:53;;;;;;;4.38;2.90;;;;;;;;;;4562223;27;20031;-70
2022/06/26 05:02:06;;;;;;;4.18;3.13;;;;;;;;;;4565940;28;20035;-70
2022/06/26 05:04:19;;;;;;;4.38;3.00;;;;;;;;;;4564194;28;20040;-70
2022/06/26 05:06:49;;;;;;;3.20;2.80;;;;;;;;;;4562123;28;20616;-70
2022/06/26 05:09:04;;;;;;;3.20;2.90;;;;;;;;;;4565087;28;20236;-70
2022/06/26 05:11:14;;;;;;;3.08;2.78;;;;;;;;;;4565056;28;20075;-70
2022/06/26 05:13:25;;;;;;;3.20;2.90;;;;;;;;;;4566130;27;20654;-70
2022/06/26 05:15:52;;;;;;;3.10;2.80;;;;;;;;;;4568575;28;20069;-70
2022/06/26 05:18:02;;;;;;;3.33;3.03;;;;;;;;;;4571500;28;20097;-70
2022/06/26 05:20:12;;;;;;;3.47;3.17;;;;;;;;;;4568148;28;20118;-72
2022/06/26 05:22:23;;;;;;;3.28;2.97;;;;;;;;;;4571202;28;20033;-71
2022/06/26 05:24:34;;;;;;;4.43;3.17;;;;;;;;;;4569702;28;20345;-70
2022/06/26 05:26:44;;;;;;;3.65;3.05;;;;;;;;;;4569285;28;20485;-70
2022/06/26 05:28:55;;;;;;;3.88;3.47;;;;;;;;;;4554407;28;20398;-70
2022/06/26 05:31:05;;;;;;;3.60;3.15;;;;;;;;;;4570476;28;20528;-70
2022/06/26 05:33:20;;;;;;;3.60;3.30;;;;;;;;;;4561925;28;20036;-70
2022/06/26 05:35:31;;;;;;;3.90;3.38;;;;;;;;;;4551234;28;20413;-70
2022/06/26 05:37:41;;;;;;;3.70;3.38;;;;;;;;;;4570776;27;20032;-71
2022/06/26 05:39:52;;;;;;;3.45;3.15;;;;;;;;;;4570729;28;20029;-70
2022/06/26 05:42:04;;;;;;;3.92;3.50;;;;;;;;;;4557825;28;20032;-70
2022/06/26 05:44:15;;;;;;;3.90;3.47;;;;;;;;;;4569530;28;20036;-70
2022/06/26 05:46:31;;;;;;;4.15;3.65;;;;;;;;;;4576910;28;20040;-70
2022/06/26 05:49:00;;;;;;;4.10;3.70;;;;;;;;;;4568501;28;20036;-70
2022/06/26 05:51:18;;;;;;;3.97;3.58;;;;;;;;;;4571926;28;20075;-70
2022/06/26 05:53:48;;;;;;;4.47;3.70;;;;;;;;;;4570554;28;20115;-70
2022/06/26 05:56:16;;;;;;;3.83;3.25;;;;;;;;;;4560984;28;20033;-70
2022/06/26 05:58:56;;;;;;;4.30;3.38;;;;;;;;;;4569089;28;20576;-70
2022/06/26 06:01:25;;;;;;;4.47;3.40;;;;;;;;;;4567449;28;21018;-70
2022/06/26 06:03:44;;;;;;;3.47;3.15;;;;;;;;;;4576978;28;20052;-71
2022/06/26 06:05:54;;;;;;;3.22;2.90;;;;;;;;;;4568549;27;20496;-70
2022/06/26 06:08:06;;;;;;;3.03;2.72;;;;;;;;;;4568734;27;20036;-70
2022/06/26 06:10:18;;;;;;;3.13;2.70;;;;;;;;;;4570375;28;20044;-70
2022/06/26 06:12:29;;;;;;;3.08;2.80;;;;;;;;;;4562011;28;20020;-70
2022/06/26 06:14:39;;;;;;;3.13;2.58;;;;;;;;;;4567743;28;20047;-70
2022/06/26 06:16:50;;;;;;;3.00;2.42;;;;;;;;;;4571278;28;20072;-70
2022/06/26 06:19:00;;;;;;;3.08;2.78;;;;;;;;;;4575442;28;20083;-70
2022/06/26 06:21:14;;;;;;;3.28;2.30;;;;;;;;;;4576147;28;20036;-70
2022/06/26 06:23:24;;;;;;;2.83;2.28;;;;;;;;;;4576490;28;20028;-70
2022/06/26 06:25:37;;;;;;;2.80;2.40;;;;;;;;;;4569839;27;20032;-70
2022/06/26 06:27:49;;;;;;;3.08;2.47;;;;;;;;;;4582445;27;20032;-70
2022/06/26 06:30:09;;;;;;;3.03;2.60;;;;;;;;;;4565136;27;20212;-70
2022/06/26 06:32:20;;;;;;;2.72;2.50;;;;;;;;;;4580706;27;20807;-70
2022/06/26 06:34:30;;;;;;;3.10;2.33;;;;;;;;;;4567020;27;20032;-70
2022/06/26 06:36:46;;;;;;;2.60;2.25;;;;;;;;;;4564649;27;20095;-68
2022/06/26 06:38:56;;;;;;;2.25;2.05;;;;;;;;;;4581048;27;20637;-68
2022/06/26 06:41:07;;;;;;;2.50;2.30;;;;;;;;;;4573979;28;20676;-68
2022/06/26 06:43:33;;;;;;;2.30;2.10;;;;;;;;;;4567575;28;20032;-67
2022/06/26 06:46:16;;;;;;;2.60;2.40;;;;;;;;;;4564308;28;20503;-67
2022/06/26 06:48:36;;;;;;;2.50;2.30;;;;;;;;;;4568586;28;20082;-67
2022/06/26 06:51:05;;;;;;;3.95;2.58;;;;;;;;;;4564027;28;20024;-67
2022/06/26 06:53:16;;;;;;;3.28;2.50;;;;;;;;;;4566295;28;20040;-67
2022/06/26 06:55:26;;;;;;;4.10;2.67;;;;;;;;;;4566958;28;20047;-67
2022/06/26 06:57:40;;;;;;;3.30;2.60;;;;;;;;;;4573288;28;20741;-67
2022/06/26 06:59:51;;;;;;;3.17;2.80;;;;;;;;;;4574240;28;20082;-67
2022/06/26 07:02:02;;;;;;;3.40;2.40;;;;;;;;;;4563584;28;20082;-67
2022/06/26 07:04:13;;;;;;;3.22;2.63;;;;;;;;;;4580529;27;20043;-67
2022/06/26 07:06:23;;;;;;;2.85;2.30;;;;;;;;;;4550009;28;20036;-67
2022/06/26 07:08:34;;;;;;;2.65;2.35;;;;;;;;;;4565613;28;20119;-68
2022/06/26 07:10:44;;;;;;;2.65;2.25;;;;;;;;;;4571963;28;20097;-67
2022/06/26 07:12:57;;;;;;;2.80;2.30;;;;;;;;;;4564443;28;20023;-67
2022/06/26 07:15:08;;;;;;;2.95;2.10;;;;;;;;;;4561836;28;20496;-67
2022/06/26 07:17:21;;;;;;;2.35;2.13;;;;;;;;;;4563260;28;20040;-67
2022/06/26 07:19:52;;;;;;;2.75;2.30;;;;;;;;;;4562941;28;20044;-67
2022/06/26 07:22:02;;;;;;;2.60;2.40;;;;;;;;;;4563992;27;20036;-67
2022/06/26 07:24:14;;;;;;;2.90;2.53;;;;;;;;;;4562328;28;20024;-67
2022/06/26 07:26:43;;;;;;;2.67;2.47;;;;;;;;;;4564096;28;20044;-67
2022/06/26 07:28:54;;;;;;;3.15;2.40;;;;;;;;;;4572207;28;20024;-67
2022/06/26 07:31:07;;;;;;;3.42;2.50;;;;;;;;;;4562981;28;20479;-67
2022/06/26 07:35:46;;;;;;;2.75;2.55;;;;;;;;;;4564561;28;20575;-68
2022/06/26 07:37:57;;;;;;;2.60;2.40;;;;;;;;;;4572284;27;20028;-67
2022/06/26 07:40:08;;;;;;;2.85;2.60;;;;;;;;;;4568498;28;20094;-67
2022/06/26 07:42:20;;;;;;;3.20;2.90;;;;;;;;;;4571350;27;20119;-67
2022/06/26 07:44:31;;;;;;;3.25;2.95;;;;;;;;;;4565500;28;20575;-68
2022/06/26 07:46:42;;;;;;;3.17;2.90;;;;;;;;;;4562627;27;20037;-67
2022/06/26 07:48:55;;;;;;;3.58;3.10;;;;;;;;;;4555547;28;20074;-67
2022/06/26 07:51:06;;;;;;;3.00;2.80;;;;;;;;;;4562781;28;20123;-67
2022/06/26 07:53:18;;;;;;;3.00;2.70;;;;;;;;;;4564581;28;20040;-68
2022/06/26 07:55:28;;;;;;;3.17;2.97;;;;;;;;;;4563643;28;20110;-68
2022/06/26 07:57:39;;;;;;;3.05;2.75;;;;;;;;;;4559972;28;20028;-68
2022/06/26 07:59:49;;;;;;;3.28;3.03;;;;;;;;;;4564090;27;20063;-68
2022/06/26 08:02:00;;;;;;;3.30;3.00;;;;;;;;;;4565952;28;20062;-68
2022/06/26 08:04:11;;;;;;;3.42;3.13;;;;;;;;;;4563938;28;20068;-68
2022/06/26 08:06:21;;;;;;;3.03;2.80;;;;;;;;;;4563535;28;20456;-68
2022/06/26 08:08:32;;;;;;;3.47;2.90;;;;;;;;;;4564442;28;20032;-68
2022/06/26 08:10:42;;;;;;;3.70;3.22;;;;;;;;;;4563483;28;20790;-67
2022/06/26 08:12:54;;;;;;;4.40;3.70;;;;;;;;;;4562279;28;20040;-68
2022/06/26 08:15:05;;;;;;;4.03;3.63;;;;;;;;;;4562973;28;20029;-68
2022/06/26 08:17:16;;;;;;;4.15;3.85;;;;;;;;;;4554390;28;20036;-68
2022/06/26 08:19:26;;;;;;;4.22;3.83;;;;;;;;;;4564057;28;20032;-68
2022/06/26 08:24:06;;;;;;;3.60;3.30;;;;;;;;;;4562651;27;20040;-68
2022/06/26 08:26:17;;;;;;;3.40;3.10;;;;;;;;;;4563460;28;20067;-68
2022/06/26 08:28:27;;;;;;;2.67;2.47;;;;;;;;;;4563788;28;20102;-68
2022/06/26 08:30:37;;;;;;;3.00;2.47;;;;;;;;;;4563071;27;20036;-68
2022/06/26 08:32:48;;;;;;;2.20;2.00;;;;;;;;;;4563961;27;20052;-68
2022/06/26 08:34:58;;;;;;;2.50;2.30;;;;;;;;;;4565552;28;20040;-68
2022/06/26 08:37:09;;;;;;;2.40;2.20;;;;;;;;;;4562046;28;20583;-68
2022/06/26 08:39:20;;;;;;;2.22;2.03;;;;;;;;;;4562577;28;20048;-68
2022/06/26 08:41:35;;;;;;;2.08;1.88;;;;;;;;;;4561588;28;20067;-68
2022/06/26 08:43:45;;;;;;;2.33;2.13;;;;;;;;;;4560559;28;20040;-68
2022/06/26 08:45:57;;;;;;;2.40;2.20;;;;;;;;;;4564079;28;20036;-68
2022/06/26 08:48:09;;;;;;;2.42;2.15;;;;;;;;;;4562705;27;20744;-69
2022/06/26 08:50:21;;;;;;;2.40;2.20;;;;;;;;;;4562942;28;20135;-68
2022/06/26 08:52:32;;;;;;;2.53;2.33;;;;;;;;;;4561293;28;20050;-68
2022/06/26 08:54:43;;;;;;;2.53;2.33;;;;;;;;;;4563403;28;20090;-68
2022/06/26 08:56:55;;;;;;;2.95;2.75;;;;;;;;;;4561751;28;20032;-68
2022/06/26 08:59:05;;;;;;;3.13;2.83;;;;;;;;;;4561063;28;20118;-68
2022/06/26 09:01:15;;;;;;;2.50;2.30;;;;;;;;;;4563167;27;20036;-68
2022/06/26 09:03:26;;;;;;;2.50;2.30;;;;;;;;;;4563059;28;20028;-67
2022/06/26 09:05:36;;;;;;;2.78;2.58;;;;;;;;;;4578768;27;20142;-68
2022/06/26 09:07:49;;;;;;;2.80;2.60;;;;;;;;;;4564021;28;20506;-68
2022/06/26 09:10:09;;;;;;;2.63;2.42;;;;;;;;;;4560760;28;20635;-67
2022/06/26 09:12:20;;;;;;;2.63;2.42;;;;;;;;;;4564749;28;20145;-67
2022/06/26 09:14:30;;;;;;;3.05;2.80;;;;;;;;;;4561923;27;20047;-68
2022/06/26 09:16:42;;;;;;;3.08;2.70;;;;;;;;;;4558696;28;20050;-67
2022/06/26 09:18:53;;;;;;;3.35;3.15;;;;;;;;;;4560304;28;21222;-67
2022/06/26 09:21:05;;;;;;;3.72;3.42;;;;;;;;;;4561948;28;20023;-67
2022/06/26 09:23:15;;;;;;;3.70;3.40;;;;;;;;;;4565216;28;20562;-67
2022/06/26 09:25:37;;;;;;;4.03;3.55;;;;;;;;;;4568807;28;20028;-67
2022/06/26 09:27:48;;;;;;;3.70;3.40;;;;;;;;;;4562166;28;20510;-67
2022/06/26 09:29:58;;;;;;;4.18;3.15;;;;;;;;;;4544259;28;20063;-67
2022/06/26 09:32:11;;;;;;;3.38;3.08;;;;;;;;;;4561567;28;20353;-67
2022/06/26 09:34:24;;;;;;;3.47;3.17;;;;;;;;;;4562988;28;20136;-67
2022/06/26 09:36:34;;;;;;;4.15;3.80;;;;;;;;;;4561995;28;20060;-69
2022/06/26 09:38:50;;;;;;;4.00;3.70;;;;;;;;;;4563771;28;20115;-67
2022/06/26 09:41:03;;;;;;;4.65;4.25;;;;;;;;;;4563883;28;20668;-67
2022/06/26 09:43:37;;;;;;;4.90;4.50;;;;;;;;;;4560664;28;20615;-68
2022/06/26 09:45:47;;;;;;;4.50;4.10;;;;;;;;;;4553073;28;20139;-68
2022/06/26 09:47:58;;;;;;;4.22;3.90;;;;;;;;;;4561310;27;20415;-67
2022/06/26 09:50:09;;;;;;;3.80;3.50;;;;;;;;;;4561151;28;20044;-67
2022/06/26 09:52:24;;;;;;;4.15;3.78;;;;;;;;;;4560827;28;20342;-68
2022/06/26 09:54:35;;;;;;;3.72;3.42;;;;;;;;;;4562980;28;20099;-67
2022/06/26 09:56:45;;;;;;;3.60;3.30;;;;;;;;;;4561579;28;20107;-67
2022/06/26 09:58:58;;;;;;;3.70;3.40;;;;;;;;;;4559491;28;20042;-66
2022/06/26 10:06:28;;;;;;;3.30;3.00;;;;;;;;;;4565128;28;20032;-67
2022/06/26 10:08:42;;;;;;;3.47;3.17;;;;;;;;;;4564636;28;20035;-67
2022/06/26 10:10:54;;;;;;;3.10;2.80;;;;;;;;;;4566099;27;20098;-67
2022/06/26 10:13:06;;;;;;;2.75;2.55;;;;;;;;;;4566633;28;20041;-68
2022/06/26 10:15:18;;;;;;;2.70;2.50;;;;;;;;;;4565936;28;20077;-67
2022/06/26 10:17:35;;;;;;;2.90;2.60;;;;;;;;;;4561542;28;20033;-67
2022/06/26 10:19:59;;;;;;;3.45;2.70;;;;;;;;;;4566577;28;20293;-67
2022/06/26 10:22:10;;;;;;;2.90;2.70;;;;;;;;;;4563295;28;20350;-68
2022/06/26 10:24:20;;;;;;;2.88;2.67;;;;;;;;;;4563647;28;20333;-67
2022/06/26 10:26:31;;;;;;;2.63;2.42;;;;;;;;;;4565403;28;20032;-68
2022/06/26 10:29:02;;;;;;;2.92;2.65;;;;;;;;;;4564812;28;20136;-67
2022/06/26 10:31:14;;;;;;;2.70;2.50;;;;;;;;;;4564980;28;20048;-68
2022/06/26 10:33:25;;;;;;;2.63;2.42;;;;;;;;;;4564757;27;20248;-67
2022/06/26 10:35:37;;;;;;;2.95;2.70;;;;;;;;;;4564812;28;20118;-67
2022/06/26 10:37:49;;;;;;;2.72;2.53;;;;;;;;;;4565535;27;20032;-67
2022/06/26 10:40:00;;;;;;;2.55;2.35;;;;;;;;;;4563717;28;20025;-67
2022/06/26 10:44:52;;;;;;;2.85;2.60;;;;;;;;;;4565902;28;20028;-68
2022/06/26 10:47:13;;;;;;;2.83;2.42;;;;;;;;;;4566697;28;20028;-68
2022/06/26 10:49:23;;;;;;;2.67;2.47;;;;;;;;;;4565190;28;20111;-67
2022/06/26 10:51:39;;;;;;;3.05;2.85;;;;;;;;;;4565799;28;20044;-68
2022/06/26 10:53:49;;;;;;;3.10;2.55;;;;;;;;;;4565869;28;20583;-67
2022/06/26 10:56:04;;;;;;;2.78;2.53;;;;;;;;;;4565657;27;20035;-67
2022/06/26 10:58:38;;;;;;;2.78;2.50;;;;;;;;;;4566423;28;20036;-67
2022/06/26 11:00:49;;;;;;;2.75;2.50;;;;;;;;;;4565504;28;20077;-68
2022/06/26 11:03:00;;;;;;;2.97;2.60;;;;;;;;;;4580995;27;20028;-67
2022/06/26 11:05:11;;;;;;;2.90;2.70;;;;;;;;;;4564489;28;20385;-68
2022/06/26 11:07:22;;;;;;;2.60;2.40;;;;;;;;;;4564597;27;20563;-67
2022/06/26 11:09:37;;;;;;;2.60;2.40;;;;;;;;;;4564989;27;20020;-68
2022/06/26 11:11:51;;;;;;;2.70;2.50;;;;;;;;;;4563984;27;21020;-67
2022/06/26 11:14:07;;;;;;;2.60;2.40;;;;;;;;;;4571514;28;20036;-68
2022/06/26 11:16:43;;;;;;;2.50;2.30;;;;;;;;;;4562963;27;20040;-68
2022/06/26 11:18:53;;;;;;;2.40;2.20;;;;;;;;;;4565434;28;20539;-68
2022/06/26 11:21:05;;;;;;;2.38;2.17;;;;;;;;;;4564823;28;20404;-67
2022/06/26 11:23:22;;;;;;;2.60;2.40;;;;;;;;;;4565793;28;20059;-68
2022/06/26 11:25:33;;;;;;;2.20;2.00;;;;;;;;;;4566236;28;20036;-68
2022/06/26 11:27:49;;;;;;;2.55;2.20;;;;;;;;;;4564460;28;20032;-68
2022/06/26 11:29:59;;;;;;;2.20;2.00;;;;;;;;;;4563401;28;21072;-68
2022/06/26 11:32:10;;;;;;;2.05;1.90;;;;;;;;;;4561993;28;20243;-68
2022/06/26 11:34:20;;;;;;;1.70;1.60;;;;;;;;;;4563165;28;20682;-67
2022/06/26 11:36:31;;;;;;;1.85;1.75;;;;;;;;;;4572663;28;20032;-68
2022/06/26 11:38:53;;;;;;;1.70;1.60;;;;;;;;;;4563220;28;20086;-67
2022/06/26 11:41:06;;;;;;;1.60;1.50;;;;;;;;;;4563866;28;20115;-68
2022/06/26 11:43:18;;;;;;;1.00;1.00;;;;;;;;;;4562988;27;20036;-68
2022/06/26 11:45:31;;;;;;;1.30;1.20;;;;;;;;;;4563595;28;20037;-67
2022/06/26 11:47:42;;;;;;;1.17;1.10;;;;;;;;;;4566094;28;20040;-67
2022/06/26 11:49:52;;;;;;;1.20;1.10;;;;;;;;;;4563597;28;20042;-67
2022/06/26 11:52:03;;;;;;;1.00;1.00;;;;;;;;;;4565881;27;20488;-67
2022/06/26 11:54:24;;;;;;;1.00;1.00;;;;;;;;;;4561359;28;20115;-67
2022/06/26 11:56:34;;;;;;;1.02;0.93;;;;;;;;;;4566104;28;20037;-68
2022/06/26 11:58:49;;;;;;;0.90;0.90;;;;;;;;;;4563734;27;27308;-67
2022/06/26 12:01:08;;;;;;;0.90;0.90;;;;;;;;;;4566071;28;20128;-67
2022/06/26 12:03:18;;;;;;;0.77;0.77;;;;;;;;;;4561798;28;20043;-67
2022/06/26 12:05:32;;;;;;;0.70;0.70;;;;;;;;;;4562435;28;20027;-67
2022/06/26 12:07:45;;;;;;;0.90;0.90;;;;;;;;;;4572683;27;20029;-68
2022/06/26 12:09:55;;;;;;;1.05;1.05;;;;;;;;;;4564111;28;20040;-67
2022/06/26 12:12:12;;;;;;;0.93;0.93;;;;;;;;;;4564175;27;20040;-67
2022/06/26 12:14:24;;;;;;;;;;;;;;;;;;4563827;28;20033;-67
2022/06/26 12:16:50;;;;;;;1.00;1.00;;;;;;;;;;4564680;28;19918;-67
2022/06/26 12:19:00;;;;;;;0.90;0.90;;;;;;;;;;4562749;28;20040;-67
2022/06/26 12:21:23;;;;;;;0.85;0.85;;;;;;;;;;4564460;28;20028;-67
2022/06/26 12:23:36;;;;;;;0.70;0.70;;;;;;;;;;4572198;27;20664;-68
2022/06/26 12:25:49;;;;;;;0.70;0.70;;;;;;;;;;4562568;28;20036;-68
2022/06/26 12:28:00;;;;;;;0.70;0.70;;;;;;;;;;4564891;28;20046;-68
2022/06/26 12:30:23;;;;;;;0.63;0.63;;;;;;;;;;4561910;28;20046;-68
2022/06/26 12:32:33;;;;;;;0.70;0.70;;;;;;;;;;4564901;28;20132;-68
2022/06/26 12:34:44;;;;;;;0.70;0.70;;;;;;;;;;4563909;28;20042;-68
2022/06/26 12:36:54;;;;;;;0.90;0.90;;;;;;;;;;4565236;28;20094;-68
2022/06/26 12:39:09;;;;;;;0.70;0.70;;;;;;;;;;4562341;28;20139;-68
2022/06/26 12:41:20;;;;;;;0.60;0.60;;;;;;;;;;4561606;28;20127;-67
2022/06/26 12:43:30;;;;;;;0.60;0.60;;;;;;;;;;4562758;28;20479;-68
2022/06/26 12:45:41;;;;;;;0.60;0.60;;;;;;;;;;4562878;28;20067;-67
2022/06/26 12:47:51;;;;;;;0.50;0.50;;;;;;;;;;4564214;27;20036;-67
2022/06/26 12:50:06;;;;;;;0.60;0.60;;;;;;;;;;4562734;27;20341;-68
2022/06/26 12:52:16;;;;;;;0.55;0.55;;;;;;;;;;4563126;28;20033;-67
2022/06/26 12:54:27;;;;;;;0.60;0.60;;;;;;;;;;4564408;28;20036;-67
2022/06/26 12:56:37;;;;;;;0.52;0.52;;;;;;;;;;4565082;28;20182;-68
2022/06/26 12:58:48;;;;;;;0.55;0.55;;;;;;;;;;4563764;28;20036;-68
2022/06/26 13:00:59;;;;;;;0.60;0.60;;;;;;;;;;4562180;28;20513;-67
2022/06/26 13:03:10;;;;;;;0.60;0.60;;;;;;;;;;4561267;28;20036;-67
2022/06/26 13:05:20;;;;;;;0.45;0.45;;;;;;;;;;4564554;28;20028;-67
2022/06/26 13:07:31;;;;;;;0.60;0.60;;;;;;;;;;4560822;28;20730;-67
2022/06/26 13:09:41;;;;;;;0.80;0.80;;;;;;;;;;4561617;28;20569;-67
2022/06/26 13:11:52;;;;;;;0.60;0.60;;;;;;;;;;4564127;27;20315;-67
2022/06/26 13:14:03;;;;;;;0.60;0.60;;;;;;;;;;4562755;28;20552;-67
2022/06/26 13:16:13;;;;;;;0.60;0.60;;;;;;;;;;4562025;27;20133;-67
2022/06/26 13:18:23;;;;;;;0.50;0.50;;;;;;;;;;4562807;27;20579;-67
2022/06/26 13:20:34;;;;;;;0.60;0.60;;;;;;;;;;4561571;28;20032;-67
2022/06/26 13:22:45;;;;;;;0.60;0.60;;;;;;;;;;4565419;28;20040;-67
2022/06/26 13:24:55;;;;;;;0.60;0.60;;;;;;;;;;4562924;28;20024;-66
2022/06/26 13:27:06;;;;;;;0.50;0.50;;;;;;;;;;4561459;27;20036;-67
2022/06/26 13:29:16;;;;;;;0.60;0.60;;;;;;;;;;4563280;28;20071;-67
2022/06/26 13:31:27;;;;;;;0.43;0.43;;;;;;;;;;4553088;28;20048;-68
2022/06/26 13:33:37;;;;;;;0.60;0.60;;;;;;;;;;4563439;28;20040;-68